Time;durP1;ratioP1;P1;durP2;ratioP2;P2;SDS_P1;SDS_P2;PMS_P1;PMS_P2;Temp;Humidity;BMP_temperature;BMP_pressure;BME280_temperature;BME280_humidity;BME280_pressure;Samples;Min_cycle;Max_cycle;Signal;HPM_P1;HPM_P2
2022/02/08 00:00:32;;;;;;;;;6.00;4.25;;;;;9.49;62.42;102507.78;5055775;28;45543;-75
2022/02/08 00:02:58;;;;;;;;;3.25;3.00;;;;;9.47;62.55;102493.91;5054832;28;46047;-76
2022/02/08 00:05:26;;;;;;;;;8.25;6.50;;;;;9.57;62.66;102508.34;5055874;28;45672;-75
2022/02/08 00:11:13;;;;;;;;;6.25;5.00;;;;;9.58;62.65;102509.19;5055841;28;45546;-75
2022/02/08 00:13:38;;;;;;;;;7.50;6.50;;;;;9.59;62.64;102503.06;5056499;28;45582;-74
2022/02/08 00:16:04;;;;;;;;;5.50;5.50;;;;;9.62;62.40;102510.78;5038331;28;45749;-79
2022/02/08 00:18:29;;;;;;;;;7.50;5.00;;;;;9.58;62.66;102496.97;5056822;28;45784;-76
2022/02/08 00:20:55;;;;;;;;;3.75;3.00;;;;;9.66;62.52;102509.78;5056673;28;45728;-75
2022/02/08 00:26:42;;;;;;;;;6.75;5.50;;;;;9.61;62.72;102498.59;5055945;28;45991;-76
2022/02/08 00:29:08;;;;;;;;;4.25;2.00;;;;;9.65;62.68;102503.69;5056100;28;45789;-76
2022/02/08 00:31:34;;;;;;;;;6.00;5.00;;;;;9.72;63.02;102504.31;5055609;28;47455;-75
2022/02/08 00:33:59;;;;;;;;;5.75;5.50;;;;;9.72;62.48;102499.06;5056268;28;45567;-76
2022/02/08 00:36:24;;;;;;;;;3.00;2.25;;;;;9.67;62.72;102493.16;5056731;28;45941;-75
2022/02/08 00:42:12;;;;;;;;;6.00;3.25;;;;;9.74;62.90;102512.09;5056606;28;45932;-74
2022/02/08 00:44:51;;;;;;;;;5.50;5.00;;;;;9.75;63.01;102508.59;5055818;28;46525;-73
2022/02/08 00:47:38;;;;;;;;;5.50;5.25;;;;;9.72;63.05;102504.31;5055665;28;45656;-74
2022/02/08 00:50:07;;;;;;;;;9.50;7.00;;;;;9.71;63.38;102518.31;5055994;28;45527;-76
2022/02/08 00:52:33;;;;;;;;;6.75;6.75;;;;;9.68;63.05;102503.56;5055344;28;47422;-74
2022/02/08 00:54:59;;;;;;;;;5.75;5.75;;;;;9.69;62.96;102501.81;5055370;28;48660;-74
2022/02/08 00:57:25;;;;;;;;;6.25;6.00;;;;;9.70;63.33;102498.28;5053684;28;46229;-75
2022/02/08 00:59:50;;;;;;;;;5.00;5.00;;;;;9.69;63.21;102493.97;5055863;28;45711;-74
2022/02/08 01:02:16;;;;;;;;;7.00;6.00;;;;;9.62;63.24;102482.84;5055690;28;45652;-74
2022/02/08 01:04:47;;;;;;;;;8.00;7.50;;;;;9.71;63.19;102499.16;5055520;28;45469;-75
2022/02/08 01:07:12;;;;;;;;;6.50;5.50;;;;;9.69;63.18;102496.56;5055732;28;45802;-73
2022/02/08 01:12:59;;;;;;;;;8.00;7.25;;;;;9.68;63.13;102497.47;5053667;28;45764;-73
2022/02/08 01:15:25;;;;;;;;;7.00;5.75;;;;;9.71;62.91;102501.75;5055410;28;46101;-74
2022/02/08 01:17:55;;;;;;;;;10.00;7.00;;;;;9.76;63.31;102508.53;5055636;28;45612;-74
2022/02/08 01:20:29;;;;;;;;;7.25;6.00;;;;;9.78;62.97;102508.47;5055587;28;45665;-74
2022/02/08 01:22:55;;;;;;;;;6.75;6.00;;;;;9.74;63.16;102496.41;5054444;28;46532;-77
2022/02/08 01:25:28;;;;;;;;;3.75;3.00;;;;;9.77;63.13;102507.59;5055070;28;47156;-75
2022/02/08 01:27:56;;;;;;;;;6.00;5.00;;;;;9.79;63.31;102508.41;5055750;28;45775;-75
2022/02/08 01:30:30;;;;;;;;;6.00;6.00;;;;;9.82;62.90;102517.94;5055399;28;45576;-74
2022/02/08 01:38:22;;;;;;;;;7.00;5.00;;;;;9.86;63.05;102520.38;5046642;28;45668;-75
2022/02/08 01:46:25;;;;;;;;;7.00;6.00;;;;;9.92;63.17;102529.75;5033059;28;45997;-78
2022/02/08 01:48:58;;;;;;;;;7.75;7.00;;;;;9.94;63.26;102526.16;5033185;28;45618;-78
2022/02/08 01:51:24;;;;;;;;;6.75;4.75;;;;;9.94;63.12;102528.78;5031780;28;45799;-79
2022/02/08 01:53:49;;;;;;;;;6.75;5.00;;;;;9.98;63.12;102524.28;5031859;28;45670;-76
2022/02/08 01:56:15;;;;;;;;;6.75;5.75;;;;;9.98;63.32;102525.16;5033272;28;45763;-79
2022/02/08 01:58:40;;;;;;;;;7.25;5.50;;;;;10.00;63.37;102525.06;5016149;28;45555;-77
2022/02/08 02:01:07;;;;;;;;;5.75;5.25;;;;;9.98;63.37;102521.69;5032571;28;45662;-77
2022/02/08 02:03:34;;;;;;;;;8.75;7.00;;;;;9.99;63.41;102524.22;5033019;28;46346;-79
2022/02/08 02:06:00;;;;;;;;;7.25;6.00;;;;;9.96;63.59;102518.25;5033265;28;46191;-77
2022/02/08 02:08:25;;;;;;;;;8.00;5.50;;;;;9.96;63.45;102521.72;5032634;28;45823;-77
2022/02/08 02:10:51;;;;;;;;;5.00;3.75;;;;;9.97;63.22;102523.44;5032854;28;45762;-78
2022/02/08 02:16:13;;;;;;;;;7.00;5.50;;;;;9.94;63.28;102514.81;4957286;28;46688;-77
2022/02/08 02:18:38;;;;;;;;;8.75;6.50;;;;;9.98;63.14;102521.69;4957955;28;45726;-80
2022/02/08 02:21:04;;;;;;;;;8.50;4.00;;;;;9.98;63.54;102522.53;4957445;28;45708;-80
2022/02/08 02:23:31;;;;;;;;;7.00;7.00;;;;;9.99;63.24;102518.13;4954584;28;47377;-80
2022/02/08 02:25:57;;;;;;;;;8.00;6.25;;;;;10.00;63.40;102515.44;4954018;28;46401;-81
2022/02/08 02:28:22;;;;;;;;;6.75;6.00;;;;;10.00;63.25;102514.59;4953907;28;45590;-79
2022/02/08 02:30:48;;;;;;;;;6.00;5.50;;;;;10.02;63.40;102518.88;4937345;28;45998;-77
2022/02/08 02:33:14;;;;;;;;;7.00;6.00;;;;;9.99;63.38;102500.66;4953098;28;47230;-77
2022/02/08 02:35:41;;;;;;;;;6.50;6.00;;;;;10.02;63.19;102511.03;4953299;28;46371;-78
2022/02/08 02:38:07;;;;;;;;;6.50;4.00;;;;;10.00;63.40;102506.75;4953229;28;45820;-78
2022/02/08 02:40:34;;;;;;;;;8.50;8.25;;;;;9.97;63.24;102501.63;4953289;28;45809;-79
2022/02/08 02:43:00;;;;;;;;;7.75;7.00;;;;;10.02;63.23;102516.25;4953306;28;47461;-80
2022/02/08 02:45:26;;;;;;;;;7.25;7.00;;;;;9.95;63.31;102491.22;4953109;28;45826;-77
2022/02/08 02:47:54;;;;;;;;;8.25;8.00;;;;;9.97;63.29;102494.63;4937095;28;45677;-80
2022/02/08 02:50:24;;;;;;;;;6.75;6.00;;;;;10.01;63.41;102498.84;4953101;28;46010;-79
2022/02/08 02:52:49;;;;;;;;;6.00;4.00;;;;;10.03;63.35;102506.66;5013639;28;46567;-79
2022/02/08 02:58:38;;;;;;;;;7.25;6.00;;;;;10.01;63.51;102497.97;5054344;28;45683;-77
2022/02/08 03:18:12;;;;;;;;;8.00;7.00;;;;;10.04;63.37;102495.25;5057608;28;45770;-79
2022/02/08 03:20:13;;;;;;;;;8.00;6.75;;;;;10.10;63.47;102503.72;5056284;28;45603;-80
2022/02/08 03:22:38;;;;;;;;;7.25;6.00;;;;;10.11;63.60;102502.81;5056591;28;45699;-78
2022/02/08 03:25:04;;;;;;;;;7.25;6.25;;;;;10.07;63.49;102509.09;5057527;28;46510;-79
2022/02/08 03:27:29;;;;;;;;;6.50;5.75;;;;;10.11;63.54;102505.41;5057935;28;45541;-80
2022/02/08 03:29:55;;;;;;;;;5.75;5.75;;;;;10.11;63.88;102507.19;5057442;28;45637;-80
2022/02/08 03:32:22;;;;;;;;;8.00;6.00;;;;;10.09;63.63;102506.41;5057431;28;45841;-77
2022/02/08 03:34:47;;;;;;;;;11.50;7.00;;;;;10.03;63.76;102498.78;5057360;28;45588;-79
2022/02/08 03:37:13;;;;;;;;;12.50;7.75;;;;;10.04;63.84;102510.97;5057451;28;47073;-79
2022/02/08 03:39:42;;;;;;;;;7.00;6.00;;;;;10.04;63.67;102513.59;5056598;28;45765;-80
2022/02/08 03:42:16;;;;;;;;;8.50;6.50;;;;;9.93;63.93;102498.25;5057248;28;45456;-77
2022/02/08 03:44:45;;;;;;;;;3.75;3.75;;;;;9.97;63.88;102514.72;5057272;28;45609;-79
2022/02/08 03:47:11;;;;;;;;;8.00;4.50;;;;;9.97;64.00;102518.19;5057082;28;45698;-77
2022/02/08 03:49:39;;;;;;;;;8.25;6.25;;;;;9.96;64.02;102526.97;5056318;28;45877;-77
2022/02/08 03:52:05;;;;;;;;;6.75;6.00;;;;;9.93;64.08;102521.81;5059587;28;45792;-74
2022/02/08 03:54:32;;;;;;;;;7.25;5.00;;;;;9.97;64.09;102527.81;5058135;28;47227;-75
2022/02/08 03:56:58;;;;;;;;;7.00;6.00;;;;;9.94;64.60;102522.69;5059653;28;46934;-76
2022/02/08 03:59:23;;;;;;;;;7.00;5.50;;;;;9.89;64.44;102512.38;5058123;28;45907;-74
2022/02/08 04:04:51;;;;;;;;;6.25;6.00;;;;;9.88;64.84;102517.69;5056776;28;45463;-75
2022/02/08 04:07:25;;;;;;;;;6.25;4.50;;;;;9.87;64.72;102516.00;5056643;28;45438;-75
2022/02/08 04:09:58;;;;;;;;;10.50;6.75;;;;;9.84;64.59;102519.56;5056279;28;45840;-76
2022/02/08 04:12:31;;;;;;;;;7.00;6.00;;;;;9.80;64.88;102515.34;5056359;28;45692;-75
2022/02/08 04:17:34;;;;;;;;;6.75;6.00;;;;;9.78;65.15;102513.69;5056343;28;46043;-76
2022/02/08 04:42:20;;;;;;;;;9.75;7.25;;;;;9.78;65.39;102517.16;5056461;28;45696;-76
2022/02/08 04:45:27;;;;;;;;;6.50;6.25;;;;;9.74;65.63;102509.50;5056297;28;45528;-75
2022/02/08 04:50:06;;;;;;;;;6.50;4.75;;;;;9.78;66.27;102513.69;5055809;28;45460;-76
2022/02/08 04:52:33;;;;;;;;;6.50;6.00;;;;;9.79;66.08;102518.88;5071452;28;45762;-77
2022/02/08 04:58:28;;;;;;;;;7.00;6.00;;;;;9.74;65.87;102502.50;5055745;28;45965;-77
2022/02/08 05:01:15;;;;;;;;;8.50;6.25;;;;;9.73;66.01;102500.78;5054454;28;47967;-78
2022/02/08 05:46:16;;;;;;;;;6.25;6.00;;;;;9.93;67.26;102513.16;4956781;28;45502;-78
2022/02/08 05:48:33;;;;;;;;;4.25;3.00;;;;;9.92;67.51;102517.53;4956725;28;45610;-78
2022/02/08 05:51:02;;;;;;;;;3.75;3.00;;;;;9.94;67.96;102510.44;4956362;28;45839;-78
2022/02/08 05:53:41;;;;;;;;;4.50;3.25;;;;;9.93;67.87;102503.50;4956531;28;45636;-78
2022/02/08 05:56:07;;;;;;;;;7.00;3.00;;;;;9.96;68.43;102506.00;4955909;28;46257;-76
2022/02/08 05:58:32;;;;;;;;;4.00;3.00;;;;;9.95;68.67;102506.06;4956183;28;45675;-79
2022/02/08 06:00:58;;;;;;;;;6.75;6.00;;;;;9.92;68.71;102503.56;4956059;28;45526;-77
2022/02/08 06:03:23;;;;;;;;;6.00;4.25;;;;;9.90;69.02;102495.78;4955720;28;45695;-79
2022/02/08 06:05:49;;;;;;;;;3.25;3.25;;;;;9.92;68.84;102501.81;4968503;28;46253;-75
2022/02/08 06:08:15;;;;;;;;;3.75;3.00;;;;;9.88;69.41;102488.91;4974789;28;46038;-80
2022/02/08 06:10:48;;;;;;;;;5.00;3.50;;;;;9.92;69.42;102500.97;4974721;28;45743;-78
2022/02/08 06:13:16;;;;;;;;;4.25;3.00;;;;;9.84;69.74;102487.28;4980173;28;46355;-79
2022/02/08 06:15:44;;;;;;;;;3.00;3.00;;;;;9.86;69.95;102488.09;5055308;28;46420;-80
2022/02/08 06:18:10;;;;;;;;;8.25;3.75;;;;;9.92;69.74;102506.19;5055163;28;45584;-78
2022/02/08 06:20:35;;;;;;;;;3.75;3.00;;;;;9.94;69.71;102501.72;5054538;28;45688;-76
2022/02/08 06:23:01;;;;;;;;;4.00;4.00;;;;;9.93;69.87;102498.25;5054433;28;47280;-78
2022/02/08 06:25:27;;;;;;;;;5.00;3.00;;;;;9.96;69.87;102513.00;5036813;28;47527;-78
2022/02/08 06:27:52;;;;;;;;;6.00;4.00;;;;;9.97;70.18;102504.25;5054644;28;45594;-79
2022/02/08 06:30:21;;;;;;;;;4.00;3.00;;;;;9.99;70.27;102505.88;5054700;28;45821;-78
2022/02/08 06:32:47;;;;;;;;;3.25;3.25;;;;;9.97;70.14;102494.63;5054936;28;46370;-81
2022/02/08 06:35:18;;;;;;;;;5.00;3.00;;;;;10.00;70.25;102510.22;5054824;28;46244;-79
2022/02/08 06:37:43;;;;;;;;;4.00;3.50;;;;;10.03;70.51;102507.50;5054536;28;45470;-79
2022/02/08 06:40:10;;;;;;;;;3.00;3.00;;;;;10.04;70.68;102514.41;5054437;28;45606;-78
2022/02/08 06:42:36;;;;;;;;;3.00;2.75;;;;;10.06;70.65;102514.38;5054418;28;47509;-77
2022/02/08 06:45:03;;;;;;;;;4.75;4.25;;;;;9.97;70.13;102497.25;5054027;28;46879;-75
2022/02/08 06:47:32;;;;;;;;;2.75;2.00;;;;;10.09;70.44;102520.31;5056016;28;45590;-75
2022/02/08 06:49:59;;;;;;;;;3.00;2.25;;;;;10.08;70.73;102523.88;5058472;28;45512;-75
2022/02/08 06:52:25;;;;;;;;;5.25;3.50;;;;;10.13;70.55;102522.84;5057371;28;46491;-76
2022/02/08 06:54:51;;;;;;;;;4.00;4.00;;;;;10.10;70.47;102514.19;5057160;28;46389;-77
2022/02/08 06:57:18;;;;;;;;;3.50;3.00;;;;;10.17;70.64;102529.69;5057197;28;45691;-79
2022/02/08 06:59:50;;;;;;;;;2.25;2.00;;;;;10.18;70.47;102531.41;5058002;28;45759;-80
2022/02/08 07:02:16;;;;;;;;;3.75;3.75;;;;;10.18;70.93;102540.13;5060087;28;45703;-75
2022/02/08 07:04:41;;;;;;;;;4.00;3.50;;;;;10.19;70.54;102541.84;5059448;28;45725;-77
2022/02/08 07:07:08;;;;;;;;;6.25;4.00;;;;;10.17;70.53;102535.78;5059195;28;45794;-76
2022/02/08 07:09:33;;;;;;;;;6.00;3.00;;;;;10.15;70.65;102532.34;5057369;28;45593;-78
2022/02/08 07:16:01;;;;;;;;;4.50;3.25;;;;;10.18;71.03;102545.38;5056318;28;45963;-79
2022/02/08 07:18:26;;;;;;;;;7.00;5.00;;;;;10.18;71.33;102541.88;5039402;28;45688;-78
2022/02/08 07:20:51;;;;;;;;;5.00;5.00;;;;;10.06;71.31;102528.31;5057204;28;45767;-78
2022/02/08 07:23:17;;;;;;;;;6.25;4.00;;;;;10.13;71.37;102535.94;5055921;28;45581;-76
2022/02/08 07:25:42;;;;;;;;;6.00;6.00;;;;;10.14;71.31;102550.75;5055885;28;47559;-79
2022/02/08 07:28:08;;;;;;;;;6.00;3.75;;;;;10.13;71.71;102549.03;5056986;28;45772;-77
2022/02/08 07:30:36;;;;;;;;;8.00;7.25;;;;;10.19;71.21;102567.19;5056540;28;45667;-78
2022/02/08 07:33:02;;;;;;;;;4.00;4.00;;;;;10.20;71.21;102561.88;5056845;28;47324;-78
2022/02/08 07:35:41;;;;;;;;;6.00;4.25;;;;;10.18;71.49;102555.84;5056814;28;46158;-77
2022/02/08 07:38:11;;;;;;;;;5.00;4.25;;;;;10.22;71.68;102560.03;5056950;28;45710;-77
2022/02/08 07:43:05;;;;;;;;;7.00;4.00;;;;;10.24;71.69;102560.00;5056761;28;45562;-80
2022/02/08 07:45:31;;;;;;;;;3.00;3.00;;;;;10.29;71.53;102561.53;5057118;28;45708;-79
2022/02/08 07:47:57;;;;;;;;;7.00;6.00;;;;;10.30;71.38;102565.00;5057022;28;45527;-76
2022/02/08 07:50:24;;;;;;;;;7.00;4.00;;;;;10.34;71.31;102567.44;5056260;28;45613;-75
2022/02/08 07:52:51;;;;;;;;;5.50;4.50;;;;;10.35;71.37;102557.81;5056761;28;46280;-77
2022/02/08 07:55:22;;;;;;;;;4.50;3.25;;;;;10.40;71.15;102556.72;5056836;28;46045;-77
2022/02/08 07:57:48;;;;;;;;;9.50;5.00;;;;;10.39;71.30;102562.00;5057234;28;45745;-78
2022/02/08 08:00:14;;;;;;;;;3.50;3.25;;;;;10.44;71.23;102560.06;5056277;28;45824;-80
2022/02/08 08:02:40;;;;;;;;;4.00;4.00;;;;;10.49;70.90;102560.75;5056945;28;46838;-79
2022/02/08 08:05:07;;;;;;;;;7.50;6.50;;;;;10.49;70.87;102551.13;5057003;28;45601;-77
2022/02/08 08:07:33;;;;;;;;;8.00;6.25;;;;;10.51;71.07;102551.06;5038751;28;45778;-81
2022/02/08 08:10:01;;;;;;;;;7.25;6.00;;;;;10.57;70.80;102556.06;5057123;28;45428;-82
2022/02/08 08:15:53;;;;;;;;;6.00;6.00;;;;;10.65;70.89;102556.59;5055652;28;45774;-78
2022/02/08 08:18:34;;;;;;;;;7.50;6.00;;;;;10.67;70.69;102554.78;5056943;28;45743;-79
2022/02/08 08:20:59;;;;;;;;;8.00;6.50;;;;;10.70;70.73;102545.91;5057063;28;45690;-79
2022/02/08 08:23:25;;;;;;;;;8.00;6.75;;;;;10.60;70.75;102524.47;5038215;28;48292;-78
2022/02/08 08:25:50;;;;;;;;;6.50;6.00;;;;;10.74;70.53;102555.38;5056893;28;45778;-78
2022/02/08 08:28:18;;;;;;;;;5.75;5.75;;;;;10.76;70.60;102548.28;5056766;28;45697;-80
2022/02/08 08:30:45;;;;;;;;;10.25;8.00;;;;;10.78;70.37;102546.47;5056515;28;45684;-76
2022/02/08 08:33:11;;;;;;;;;7.00;7.00;;;;;10.80;70.20;102548.09;5056245;28;46499;-77
2022/02/08 08:35:38;;;;;;;;;6.00;5.00;;;;;10.81;70.42;102548.97;5058044;28;47132;-80
2022/02/08 08:38:06;;;;;;;;;7.00;6.25;;;;;10.84;70.29;102551.47;5058115;28;45487;-79
2022/02/08 08:43:49;;;;;;;;;7.75;7.00;;;;;10.86;70.18;102555.72;4994639;28;46375;-74
2022/02/08 08:51:42;;;;;;;;;6.75;6.25;;;;;10.91;70.22;102564.25;4994328;28;45810;-77
2022/02/08 08:54:08;;;;;;;;;9.00;8.00;;;;;10.91;69.96;102561.63;4993971;28;47387;-76
2022/02/08 08:56:37;;;;;;;;;7.50;7.25;;;;;10.89;69.92;102560.00;4993963;28;45813;-77
2022/02/08 08:59:05;;;;;;;;;13.75;8.25;;;;;10.94;69.97;102565.91;4994162;28;45938;-77
2022/02/08 09:01:31;;;;;;;;;9.75;7.50;;;;;10.93;69.86;102558.94;4994223;28;45701;-73
2022/02/08 09:03:57;;;;;;;;;9.00;9.00;;;;;10.94;69.94;102550.19;4993820;28;47528;-75
2022/02/08 09:06:23;;;;;;;;;8.75;7.75;;;;;11.00;69.88;102562.19;4977237;28;46265;-76
2022/02/08 09:08:48;;;;;;;;;8.00;7.25;;;;;11.00;69.70;102565.66;4994019;28;45657;-77
2022/02/08 09:19:39;;;;;;;;;8.00;6.75;;;;;10.98;69.46;102558.75;4973943;28;45573;-77
2022/02/08 09:30:29;;;;;;;;;8.50;7.75;;;;;10.98;69.59;102556.13;4973598;28;45765;-79
2022/02/08 09:32:55;;;;;;;;;8.75;8.25;;;;;10.96;69.81;102552.75;4973385;28;45728;-77
2022/02/08 09:35:21;;;;;;;;;8.00;8.00;;;;;10.92;69.72;102542.38;4973602;28;46343;-77
2022/02/08 09:37:47;;;;;;;;;10.00;9.00;;;;;11.00;69.60;102556.94;4973544;28;46085;-77
2022/02/08 09:40:21;;;;;;;;;10.75;9.25;;;;;10.93;69.72;102543.22;4973425;28;45962;-77
2022/02/08 09:42:49;;;;;;;;;9.00;7.75;;;;;11.03;69.73;102555.03;4973202;28;45675;-76
2022/02/08 09:45:18;;;;;;;;;8.25;8.00;;;;;11.06;69.64;102551.44;4973157;28;47404;-78
2022/02/08 09:48:13;;;;;;;;;8.75;8.50;;;;;11.09;69.58;102553.91;4973246;28;47074;-77
2022/02/08 09:50:33;;;;;;;;;12.25;9.50;;;;;11.03;69.72;102541.91;4995091;28;45536;-76
2022/02/08 09:53:01;;;;;;;;;10.00;8.25;;;;;11.12;69.62;102549.38;5054826;28;45469;-77
2022/02/08 09:55:40;;;;;;;;;10.75;8.00;;;;;11.14;69.61;102551.94;5054834;28;45679;-78
2022/02/08 09:58:08;;;;;;;;;7.75;7.00;;;;;11.08;69.82;102542.56;5054261;28;47090;-76
2022/02/08 10:00:36;;;;;;;;;7.50;7.25;;;;;11.19;69.62;102547.38;5055035;28;45793;-75
2022/02/08 10:03:05;;;;;;;;;8.25;7.75;;;;;11.21;69.62;102548.16;5054830;28;45922;-77
2022/02/08 10:05:40;;;;;;;;;7.00;7.00;;;;;11.22;69.79;102545.47;5055074;28;47294;-77
2022/02/08 10:08:07;;;;;;;;;10.50;8.00;;;;;11.26;69.62;102548.81;5055170;28;45999;-77
2022/02/08 10:10:34;;;;;;;;;8.50;8.50;;;;;11.28;69.79;102545.19;5056141;28;45688;-78
2022/02/08 10:13:14;;;;;;;;;10.00;9.00;;;;;11.29;69.64;102546.03;5058641;28;45922;-80
2022/02/08 10:21:38;;;;;;;;;7.00;6.75;;;;;11.42;69.53;102543.75;5039748;28;45720;-79
2022/02/08 10:24:01;;;;;;;;;8.00;8.00;;;;;11.44;69.51;102549.81;5054288;28;45832;-78
2022/02/08 10:40:22;;;;;;;;;7.75;7.25;;;;;11.69;69.43;102561.78;5054324;28;45584;-79
2022/02/08 10:46:20;;;;;;;;;6.50;5.25;;;;;11.78;69.18;102548.25;5054813;28;45485;-79
2022/02/08 10:48:47;;;;;;;;;6.00;5.25;;;;;11.83;69.22;102548.06;5036201;28;47460;-79
2022/02/08 10:51:17;;;;;;;;;7.00;6.75;;;;;11.88;69.28;102550.47;5054146;28;45649;-78
2022/02/08 10:53:55;;;;;;;;;9.25;6.75;;;;;11.94;69.17;102558.94;5054054;28;45524;-79
2022/02/08 10:56:27;;;;;;;;;8.25;7.75;;;;;11.99;69.03;102556.09;5053957;28;45927;-79
2022/02/08 10:59:09;;;;;;;;;9.25;8.50;;;;;12.00;69.29;102553.41;5053814;28;47212;-79
2022/02/08 11:01:42;;;;;;;;;9.00;8.00;;;;;12.09;68.91;102554.78;5053983;28;46336;-78
2022/02/08 11:04:15;;;;;;;;;9.75;8.00;;;;;12.11;68.84;102553.75;5053839;28;45745;-77
2022/02/08 11:06:55;;;;;;;;;8.00;8.00;;;;;12.16;68.93;102551.75;5053906;28;45645;-77
2022/02/08 11:09:34;;;;;;;;;7.50;7.50;;;;;12.19;69.08;102543.75;5053398;28;45608;-76
2022/02/08 11:19:40;;;;;;;;;3.00;3.00;;;;;12.35;68.70;102541.25;5033193;28;45538;-75
2022/02/08 11:22:24;;;;;;;;;8.25;7.00;;;;;12.39;68.59;102528.81;5032943;28;46489;-73
2022/02/08 11:24:56;;;;;;;;;8.25;6.25;;;;;12.46;68.77;102533.72;5033327;28;45678;-76
2022/02/08 11:27:22;;;;;;;;;7.50;6.25;;;;;12.51;68.25;102522.97;5032857;28;45661;-78
2022/02/08 11:30:04;;;;;;;;;8.25;5.75;;;;;12.54;68.58;102531.53;4998683;28;47516;-79
2022/02/08 11:33:06;;;;;;;;;5.00;5.00;;;;;12.54;68.35;102525.44;5033154;28;45943;-77
2022/02/08 11:45:22;;;;;;;;;8.75;7.25;;;;;12.72;68.11;102521.06;5036895;28;45894;-77
2022/02/08 11:53:43;;;;;;;;;6.50;6.25;;;;;12.72;68.15;102494.75;5016476;28;45595;-80
2022/02/08 12:09:52;;;;;;;;;9.50;8.50;;;;;12.90;67.51;102480.69;5014090;28;45489;-77
2022/02/08 12:32:20;;;;;;;;;4.00;3.75;;;;;12.85;67.53;102446.72;5055684;28;45746;-77
2022/02/08 12:49:12;;;;;;;;;3.75;3.75;;;;;12.96;67.08;102438.25;5055926;28;46147;-77
2022/02/08 14:06:21;;;;;;;;;4.25;3.75;;;;;12.95;67.01;102391.88;5054402;28;46310;-77
2022/02/08 14:14:29;;;;;;;;;5.50;5.00;;;;;12.87;66.64;102384.34;5054617;28;45620;-77
2022/02/08 14:22:17;;;;;;;;;3.00;3.00;;;;;12.93;66.32;102372.66;5053960;28;45815;-78
2022/02/08 14:30:48;;;;;;;;;5.50;5.25;;;;;13.02;66.69;102375.66;5053883;28;46123;-77
2022/02/08 14:36:04;;;;;;;;;5.00;5.00;;;;;13.00;66.58;102369.66;5054109;28;45605;-76
2022/02/08 15:09:18;;;;;;;;;6.50;6.50;;;;;13.01;66.11;102370.47;5059023;28;45663;-77
2022/02/08 15:12:00;;;;;;;;;5.75;5.00;;;;;13.02;66.30;102367.75;5058048;28;46912;-78
2022/02/08 15:14:30;;;;;;;;;8.00;6.25;;;;;12.99;66.25;102372.34;5057937;28;46221;-77
2022/02/08 15:17:03;;;;;;;;;7.25;5.00;;;;;12.98;65.99;102365.38;5057786;28;45837;-76
2022/02/08 15:19:28;;;;;;;;;5.00;4.75;;;;;12.96;66.61;102370.72;5058828;28;45458;-76
2022/02/08 15:21:54;;;;;;;;;5.00;4.00;;;;;12.95;66.29;102376.06;5058652;28;45632;-77
2022/02/08 15:24:19;;;;;;;;;8.00;6.25;;;;;12.94;65.96;102364.69;5058549;28;46963;-78
2022/02/08 15:26:48;;;;;;;;;6.00;5.75;;;;;12.91;66.49;102367.47;5057864;28;45448;-79
2022/02/08 15:29:16;;;;;;;;;9.00;8.00;;;;;12.93;66.21;102377.94;5058053;28;45731;-78
2022/02/08 15:31:41;;;;;;;;;7.00;6.75;;;;;12.93;65.90;102373.53;5058415;28;45657;-77
2022/02/08 15:34:06;;;;;;;;;8.50;8.50;;;;;12.90;66.13;102372.84;5058020;28;45782;-78
2022/02/08 15:36:32;;;;;;;;;6.50;4.75;;;;;12.91;65.87;102375.38;5058118;28;45584;-79
2022/02/08 15:39:06;;;;;;;;;6.50;5.00;;;;;12.89;66.02;102377.25;5039272;28;45509;-78
2022/02/08 15:41:34;;;;;;;;;5.00;5.00;;;;;12.89;66.12;102368.50;5056379;28;46952;-76
2022/02/08 15:43:59;;;;;;;;;8.00;6.75;;;;;12.82;65.71;102362.72;5057284;28;47118;-78
2022/02/08 15:46:26;;;;;;;;;6.75;6.25;;;;;12.86;65.64;102366.88;5057754;28;45472;-78
2022/02/08 15:48:54;;;;;;;;;7.50;6.75;;;;;12.86;65.72;102366.88;5057719;28;45584;-78
2022/02/08 15:54:07;;;;;;;;;3.50;3.00;;;;;12.86;65.64;102356.34;5056828;28;45860;-77
2022/02/08 16:07:20;;;;;;;;;10.00;8.00;;;;;12.83;65.94;102356.53;5056822;28;45444;-76
2022/02/08 16:20:10;;;;;;;;;9.00;7.00;;;;;12.88;65.65;102362.38;5054504;28;45612;-78
2022/02/08 16:25:45;;;;;;;;;6.25;5.00;;;;;12.84;65.56;102360.84;5055832;28;45989;-77
2022/02/08 16:58:51;;;;;;;;;6.75;5.75;;;;;12.81;66.13;102370.66;5055698;28;45970;-77
2022/02/08 17:01:20;;;;;;;;;5.00;5.00;;;;;12.80;65.84;102371.59;5055968;28;45800;-77
2022/02/08 17:03:47;;;;;;;;;7.00;6.00;;;;;12.75;66.17;102369.22;5055581;28;45889;-78
2022/02/08 17:06:27;;;;;;;;;7.75;7.00;;;;;12.78;66.01;102373.47;5054281;28;45719;-77
2022/02/08 17:09:03;;;;;;;;;5.00;5.00;;;;;12.76;66.11;102370.91;5055751;28;47139;-77
2022/02/08 17:11:39;;;;;;;;;8.50;6.25;;;;;12.75;66.25;102376.25;5056247;28;45664;-79
2022/02/08 17:47:15;;;;;;;;;8.75;8.00;;;;;12.56;66.42;102373.72;5055475;28;45705;-78
2022/02/08 17:49:40;;;;;;;;;7.50;6.25;;;;;12.55;66.21;102379.91;5055013;28;46725;-78
2022/02/08 17:52:06;;;;;;;;;7.25;7.25;;;;;12.55;66.13;102377.28;5053946;28;46309;-75
2022/02/08 17:54:31;;;;;;;;;10.00;8.50;;;;;12.50;66.14;102384.53;5055133;28;45625;-79
2022/02/08 17:56:57;;;;;;;;;11.75;9.00;;;;;12.48;66.33;102373.25;5055443;28;45547;-77
2022/02/08 18:02:44;;;;;;;;;8.00;8.00;;;;;12.52;66.23;102377.44;5055093;28;45747;-78
2022/02/08 18:05:14;;;;;;;;;10.75;9.75;;;;;12.39;66.46;102360.59;5055408;28;45726;-77
2022/02/08 18:07:40;;;;;;;;;9.50;9.00;;;;;12.48;66.71;102381.13;5055769;28;45530;-78
2022/02/08 18:10:08;;;;;;;;;10.25;9.75;;;;;12.51;66.40;102388.88;5056290;28;45836;-79
2022/02/08 18:12:34;;;;;;;;;11.00;9.25;;;;;12.36;66.40;102358.13;5067213;28;46029;-78
2022/02/08 18:18:41;;;;;;;;;12.00;10.00;;;;;12.44;66.30;102372.56;5065861;28;45298;-78
2022/02/08 18:21:28;;;;;;;;;7.75;7.00;;;;;12.51;66.27;102381.00;5069881;28;46945;-78
2022/02/08 19:07:53;;;;;;;;;10.00;10.00;;;;;12.31;66.79;102394.31;5053272;28;46224;-77
2022/02/08 19:23:52;;;;;;;;;11.50;11.00;;;;;12.13;66.92;102377.66;5053795;28;45527;-76
2022/02/08 19:26:17;;;;;;;;;11.75;10.75;;;;;12.13;66.79;102386.38;5053416;28;46647;-75
2022/02/08 19:28:47;;;;;;;;;10.00;9.50;;;;;12.08;67.33;102374.41;5053354;28;45731;-77
2022/02/08 19:31:19;;;;;;;;;10.00;9.75;;;;;12.10;67.07;102380.41;5053410;28;45769;-78
2022/02/08 19:33:45;;;;;;;;;10.00;9.50;;;;;12.05;67.17;102382.41;5053360;28;45574;-75
2022/02/08 19:36:10;;;;;;;;;10.00;9.75;;;;;12.01;67.22;102370.38;5053651;28;45623;-77
2022/02/08 19:38:38;;;;;;;;;8.50;8.25;;;;;12.01;67.08;102365.13;5053523;28;46294;-77
2022/02/08 19:41:04;;;;;;;;;12.50;11.75;;;;;12.04;67.11;102375.47;5053643;28;45479;-76
2022/02/08 19:43:31;;;;;;;;;14.25;10.75;;;;;12.02;67.15;102358.94;5053004;28;45690;-76
2022/02/08 19:45:56;;;;;;;;;12.25;11.75;;;;;12.09;67.26;102376.09;5052847;28;46446;-74
2022/02/08 19:48:22;;;;;;;;;14.00;10.75;;;;;12.09;67.18;102379.56;5052558;28;47118;-74
2022/02/08 19:50:49;;;;;;;;;16.75;15.25;;;;;12.08;67.31;102369.16;5052981;28;45699;-73
2022/02/08 19:53:14;;;;;;;;;15.25;11.25;;;;;12.09;67.22;102376.09;5052668;28;45593;-76
2022/02/08 19:55:49;;;;;;;;;15.00;14.25;;;;;12.10;67.00;102372.53;5054050;28;45959;-76
2022/02/08 19:58:25;;;;;;;;;13.25;12.00;;;;;12.11;66.97;102369.00;5056037;28;46411;-74
2022/02/08 20:04:19;;;;;;;;;12.25;11.00;;;;;12.08;67.19;102369.16;5055799;28;45695;-74
2022/02/08 20:06:46;;;;;;;;;16.75;14.00;;;;;12.06;67.18;102374.47;5038182;28;45831;-74
2022/02/08 20:09:12;;;;;;;;;17.25;14.75;;;;;12.05;67.09;102377.16;5055897;28;46251;-76
2022/02/08 20:11:38;;;;;;;;;14.75;14.75;;;;;11.97;67.41;102353.91;5038151;28;45591;-76
2022/02/08 20:14:07;;;;;;;;;18.50;17.00;;;;;12.00;67.41;102366.88;5055887;28;45605;-75
2022/02/08 20:16:34;;;;;;;;;16.50;13.50;;;;;12.01;67.26;102370.38;5053937;28;48508;-74
2022/02/08 20:19:01;;;;;;;;;14.00;13.50;;;;;12.01;67.15;102367.75;5054549;28;48178;-76
2022/02/08 20:21:29;;;;;;;;;14.00;12.25;;;;;12.00;67.25;102358.16;5055955;28;45735;-75
2022/02/08 20:23:58;;;;;;;;;11.50;10.50;;;;;12.00;67.31;102361.63;5038183;28;45959;-76
2022/02/08 20:26:29;;;;;;;;;12.00;8.50;;;;;12.00;66.99;102361.63;5055868;28;46469;-77
2022/02/08 20:28:56;;;;;;;;;11.00;10.25;;;;;11.99;67.60;102356.44;5055599;28;46109;-73